createdAt,value
2023-05-25T00:01:04.928Z,9.40
2023-05-25T00:03:32.623Z,9.40
2023-05-25T00:06:04.016Z,9.40
2023-05-25T00:08:31.189Z,9.50
2023-05-25T00:10:58.430Z,9.50
2023-05-25T00:13:25.502Z,9.40
2023-05-25T00:15:52.609Z,9.50
2023-05-25T00:18:19.561Z,9.40
2023-05-25T00:20:47.821Z,9.40
2023-05-25T00:23:15.419Z,9.40
2023-05-25T00:25:42.738Z,9.30
2023-05-25T00:28:11.575Z,9.30
2023-05-25T00:30:38.500Z,9.30
2023-05-25T00:33:05.859Z,9.20
2023-05-25T00:35:33.050Z,9.20
2023-05-25T00:37:59.914Z,9.20
2023-05-25T00:40:26.819Z,9.20
2023-05-25T00:42:53.915Z,9.20
2023-05-25T00:45:20.805Z,9.10
2023-05-25T00:47:51.945Z,9.10
2023-05-25T00:50:35.130Z,9.10
2023-05-25T00:53:02.104Z,9.10
2023-05-25T00:55:31.574Z,9.10
2023-05-25T00:58:00.660Z,9.10
2023-05-25T01:00:30.720Z,9.10
2023-05-25T01:02:59.928Z,9.00
2023-05-25T01:05:30.533Z,9.00
2023-05-25T01:08:01.855Z,9.00
2023-05-25T01:10:32.163Z,9.00
2023-05-25T01:13:02.185Z,8.90
2023-05-25T01:15:32.721Z,9.00
2023-05-25T01:18:00.077Z,8.90
2023-05-25T01:20:30.721Z,8.90
2023-05-25T01:23:11.919Z,8.90
2023-05-25T01:25:48.228Z,8.90
2023-05-25T01:28:40.370Z,8.90
2023-05-25T01:31:09.432Z,8.90
2023-05-25T01:33:38.314Z,8.90
2023-05-25T01:36:06.208Z,8.90
2023-05-25T01:38:33.958Z,8.90
2023-05-25T01:41:00.782Z,8.90
2023-05-25T01:43:27.871Z,8.90
2023-05-25T01:46:18.729Z,8.90
2023-05-25T01:49:02.572Z,8.90
2023-05-25T01:51:48.019Z,8.90
2023-05-25T01:54:20.619Z,8.90
2023-05-25T01:56:51.469Z,8.90
2023-05-25T01:59:21.895Z,8.90
2023-05-25T02:01:52.943Z,8.90
2023-05-25T02:04:22.068Z,8.90
2023-05-25T02:06:53.346Z,8.90
2023-05-25T02:09:20.189Z,8.90
2023-05-25T02:11:47.138Z,8.90
2023-05-25T02:14:14.741Z,8.90
2023-05-25T02:16:41.643Z,8.90
2023-05-25T02:19:08.609Z,8.90
2023-05-25T02:21:38.251Z,8.90
2023-05-25T02:24:05.559Z,8.90
2023-05-25T02:26:32.395Z,8.90
2023-05-25T02:28:59.217Z,8.90
2023-05-25T02:31:26.158Z,8.80
2023-05-25T02:33:53.053Z,8.90
2023-05-25T02:36:20.044Z,8.90
2023-05-25T02:38:49.937Z,8.80
2023-05-25T02:41:17.097Z,8.90
2023-05-25T02:43:43.977Z,8.90
2023-05-25T02:46:10.959Z,8.90
2023-05-25T02:48:37.942Z,8.90
2023-05-25T02:51:05.368Z,8.90
2023-05-25T02:53:32.174Z,8.90
2023-05-25T02:56:00.184Z,8.90
2023-05-25T02:58:27.602Z,9.00
2023-05-25T03:00:55.258Z,9.00
2023-05-25T03:03:22.207Z,9.00
2023-05-25T03:05:50.516Z,9.00
2023-05-25T03:08:17.457Z,9.00
2023-05-25T03:10:45.030Z,9.00
2023-05-25T03:13:11.860Z,9.00
2023-05-25T03:15:42.172Z,8.90
2023-05-25T03:18:09.068Z,8.90
2023-05-25T03:20:36.034Z,8.90
2023-05-25T03:23:03.251Z,8.80
2023-05-25T03:25:30.093Z,8.80
2023-05-25T03:27:57.335Z,8.80
2023-05-25T03:30:24.540Z,8.70
2023-05-25T03:32:54.309Z,8.70
2023-05-25T03:35:21.280Z,8.70
2023-05-25T03:37:48.695Z,8.50
2023-05-25T03:40:16.028Z,8.60
2023-05-25T03:42:42.893Z,8.50
2023-05-25T03:45:10.427Z,8.50
2023-05-25T03:47:37.397Z,8.50
2023-05-25T03:50:07.369Z,8.50
2023-05-25T03:52:34.401Z,8.50
2023-05-25T03:55:05.186Z,8.50
2023-05-25T03:57:32.092Z,8.50
2023-05-25T03:59:59.390Z,8.50
2023-05-25T04:02:26.570Z,8.50
2023-05-25T04:04:53.847Z,8.50
2023-05-25T04:07:20.896Z,8.50
2023-05-25T04:09:47.768Z,8.50
2023-05-25T04:12:14.665Z,8.50
2023-05-25T04:14:42.635Z,8.50
2023-05-25T04:17:09.722Z,8.50
2023-05-25T04:19:36.516Z,8.50
2023-05-25T04:22:03.451Z,8.50
2023-05-25T04:24:30.243Z,8.60
2023-05-25T04:26:57.140Z,8.50
2023-05-25T04:29:23.878Z,8.60
2023-05-25T04:31:51.808Z,8.60
2023-05-25T04:34:21.712Z,8.60
2023-05-25T04:36:48.682Z,8.60
2023-05-25T04:39:15.951Z,8.60
2023-05-25T04:41:44.062Z,8.60
2023-05-25T04:44:11.222Z,8.70
2023-05-25T04:46:39.031Z,8.70
2023-05-25T04:49:08.464Z,8.70
2023-05-25T04:51:37.547Z,8.70
2023-05-25T04:54:05.999Z,8.80
2023-05-25T04:56:32.917Z,8.70
2023-05-25T04:58:59.722Z,8.80
2023-05-25T05:01:26.702Z,8.80
2023-05-25T05:03:53.644Z,8.80
2023-05-25T05:06:21.691Z,8.80
2023-05-25T05:08:49.042Z,8.90
2023-05-25T05:11:16.551Z,8.90
2023-05-25T05:13:43.420Z,8.90
2023-05-25T05:16:10.249Z,8.90
2023-05-25T05:18:37.128Z,9.00
2023-05-25T05:21:04.332Z,9.00
2023-05-25T05:23:33.916Z,9.10
2023-05-25T05:26:01.111Z,9.10
2023-05-25T05:28:28.595Z,9.20
2023-05-25T05:30:55.647Z,9.20
2023-05-25T05:33:24.463Z,9.20
2023-05-25T05:35:52.542Z,9.30
2023-05-25T05:38:19.610Z,9.30
2023-05-25T05:40:46.554Z,9.40
2023-05-25T05:43:15.629Z,9.40
2023-05-25T05:45:42.601Z,9.50
2023-05-25T05:48:09.949Z,9.50
2023-05-25T05:50:42.007Z,9.60
2023-05-25T05:53:10.136Z,9.60
2023-05-25T05:55:37.312Z,9.70
2023-05-25T05:58:04.177Z,9.70
2023-05-25T06:00:31.496Z,9.70
2023-05-25T06:02:58.434Z,9.70
2023-05-25T06:05:25.491Z,9.70
2023-05-25T06:07:52.452Z,9.70
2023-05-25T06:10:19.285Z,9.70
2023-05-25T06:12:46.118Z,9.90
2023-05-25T06:15:13.572Z,9.90
2023-05-25T06:17:40.672Z,10.00
2023-05-25T06:20:08.385Z,10.00
2023-05-25T06:22:35.867Z,10.10
2023-05-25T06:25:02.797Z,10.20
2023-05-25T06:27:29.650Z,10.20
2023-05-25T06:29:56.738Z,10.30
2023-05-25T06:32:23.588Z,10.40
2023-05-25T06:34:50.444Z,10.50
2023-05-25T06:37:17.400Z,10.60
2023-05-25T06:39:44.415Z,10.60
2023-05-25T06:42:11.858Z,10.70
2023-05-25T06:44:38.952Z,10.80
2023-05-25T06:47:06.785Z,10.80
2023-05-25T06:49:33.653Z,10.90
2023-05-25T06:52:00.744Z,10.90
2023-05-25T06:54:27.844Z,11.00
2023-05-25T06:56:54.738Z,11.10
2023-05-25T06:59:21.601Z,11.10
2023-05-25T07:01:49.314Z,11.10
2023-05-25T07:04:16.244Z,11.20
2023-05-25T07:06:43.847Z,11.30
2023-05-25T07:09:11.111Z,11.30
2023-05-25T07:11:37.897Z,11.40
2023-05-25T07:14:05.073Z,11.60
2023-05-25T07:16:32.143Z,11.80
2023-05-25T07:19:00.429Z,12.00
2023-05-25T07:21:33.408Z,12.10
2023-05-25T07:24:00.735Z,12.20
2023-05-25T07:26:28.019Z,12.30
2023-05-25T07:28:55.021Z,12.40
2023-05-25T07:31:22.535Z,12.50
2023-05-25T07:33:49.873Z,12.50
2023-05-25T07:36:17.724Z,12.50
2023-05-25T07:38:44.556Z,12.50
2023-05-25T07:41:13.436Z,12.50
2023-05-25T07:43:40.591Z,12.50
2023-05-25T07:46:10.015Z,12.50
2023-05-25T07:48:43.349Z,12.50
2023-05-25T07:51:10.282Z,12.50
2023-05-25T07:53:37.852Z,12.60
2023-05-25T07:56:06.257Z,12.80
2023-05-25T07:58:34.233Z,12.90
2023-05-25T08:01:01.057Z,13.10
2023-05-25T08:03:39.562Z,13.20
2023-05-25T08:06:14.872Z,13.40
2023-05-25T08:08:41.983Z,13.60
2023-05-25T08:11:08.898Z,13.70
2023-05-25T08:13:35.708Z,13.80
2023-05-25T08:16:02.607Z,13.90
2023-05-25T08:18:29.451Z,14.00
2023-05-25T08:20:56.430Z,14.10
2023-05-25T08:23:23.466Z,14.10
2023-05-25T08:25:51.122Z,14.10
2023-05-25T08:28:20.034Z,14.20
2023-05-25T08:30:47.030Z,14.20
2023-05-25T08:33:13.979Z,14.30
2023-05-25T08:35:43.074Z,14.40
2023-05-25T08:38:10.185Z,14.40
2023-05-25T08:40:41.292Z,14.40
2023-05-25T08:43:08.354Z,14.40
2023-05-25T08:45:37.061Z,14.50
2023-05-25T08:48:23.872Z,14.60
2023-05-25T08:51:10.370Z,14.70
2023-05-25T08:53:40.798Z,15.00
2023-05-25T08:56:18.457Z,15.20
2023-05-25T08:58:53.725Z,15.30
2023-05-25T09:01:23.282Z,15.30
2023-05-25T09:03:51.526Z,15.10
2023-05-25T09:06:19.099Z,15.00
2023-05-25T09:08:46.331Z,14.90
2023-05-25T09:11:16.839Z,14.90
2023-05-25T09:13:46.453Z,14.90
2023-05-25T09:16:13.469Z,14.90
2023-05-25T09:18:40.581Z,15.40
2023-05-25T09:21:07.747Z,15.30
2023-05-25T09:23:36.606Z,15.50
2023-05-25T09:26:03.595Z,15.70
2023-05-25T09:28:30.488Z,15.80
2023-05-25T09:30:57.477Z,15.80
2023-05-25T09:33:24.403Z,15.70
2023-05-25T09:35:51.987Z,15.60
2023-05-25T09:38:19.493Z,15.50
2023-05-25T09:40:47.042Z,15.40
2023-05-25T09:43:21.975Z,15.60
2023-05-25T09:45:55.957Z,15.70
2023-05-25T09:48:24.251Z,15.80
2023-05-25T09:50:51.765Z,15.90
2023-05-25T09:53:19.192Z,16.00
2023-05-25T09:55:55.516Z,16.10
2023-05-25T09:58:27.508Z,16.20
2023-05-25T10:00:57.310Z,16.20
2023-05-25T10:03:24.500Z,16.20
2023-05-25T10:05:53.415Z,16.20
2023-05-25T10:08:28.506Z,16.20
2023-05-25T10:10:55.975Z,16.20
2023-05-25T10:13:23.688Z,16.30
2023-05-25T10:15:54.378Z,16.40
2023-05-25T10:18:28.030Z,16.70
2023-05-25T10:21:05.011Z,17.20
2023-05-25T10:23:48.243Z,16.90
2023-05-25T10:26:20.311Z,17.00
2023-05-25T10:28:52.394Z,17.10
2023-05-25T10:31:19.930Z,17.20
2023-05-25T10:33:50.617Z,17.30
2023-05-25T10:36:20.767Z,17.30
2023-05-25T10:38:50.938Z,17.30
2023-05-25T10:41:21.515Z,17.30
2023-05-25T10:43:49.342Z,17.40
2023-05-25T10:46:17.489Z,17.30
2023-05-25T10:48:50.061Z,17.40
2023-05-25T10:51:20.756Z,17.40
2023-05-25T10:53:59.774Z,17.40
2023-05-25T10:56:26.590Z,17.30
2023-05-25T10:58:53.960Z,17.10
2023-05-25T11:01:20.923Z,16.90
2023-05-25T11:03:56.168Z,16.60
2023-05-25T11:06:47.154Z,16.50
2023-05-25T11:09:33.781Z,16.30
2023-05-25T11:12:03.731Z,16.30
2023-05-25T11:14:33.795Z,16.20
2023-05-25T11:17:19.856Z,16.10
2023-05-25T11:19:53.339Z,16.20
2023-05-25T11:22:31.183Z,16.20
2023-05-25T11:25:00.665Z,16.50
2023-05-25T11:27:30.419Z,16.90
2023-05-25T11:29:59.305Z,17.30
2023-05-25T11:32:27.185Z,17.70
2023-05-25T11:34:55.638Z,17.80
2023-05-25T11:37:28.932Z,17.80
2023-05-25T11:39:56.336Z,17.80
2023-05-25T11:42:27.824Z,17.90
2023-05-25T11:44:55.563Z,18.10
2023-05-25T11:47:25.273Z,18.30
2023-05-25T11:49:55.563Z,18.40
2023-05-25T11:52:23.188Z,18.50
2023-05-25T11:54:50.115Z,18.60
2023-05-25T11:57:19.614Z,18.50
2023-05-25T11:59:52.470Z,18.60
2023-05-25T12:02:20.458Z,18.60
2023-05-25T12:05:04.407Z,18.60
2023-05-25T12:07:34.474Z,18.70
2023-05-25T12:10:11.298Z,18.70
2023-05-25T12:12:46.318Z,18.60
2023-05-25T12:15:22.471Z,18.70
2023-05-25T12:17:50.608Z,18.80
2023-05-25T12:20:18.794Z,19.00
2023-05-25T12:22:46.686Z,19.10
2023-05-25T12:25:15.874Z,19.20
2023-05-25T12:27:43.797Z,19.20
2023-05-25T12:30:11.984Z,19.20
2023-05-25T12:33:02.401Z,19.20
2023-05-25T12:35:46.099Z,19.10
2023-05-25T12:38:23.687Z,19.10
2023-05-25T12:41:07.097Z,19.20
2023-05-25T12:43:43.330Z,19.40
2023-05-25T12:46:10.530Z,19.40
2023-05-25T12:48:37.499Z,19.50
2023-05-25T12:51:05.037Z,19.50
2023-05-25T12:53:31.915Z,19.50
2023-05-25T12:56:03.853Z,19.50
2023-05-25T12:58:31.005Z,19.30
2023-05-25T13:00:58.170Z,19.30
2023-05-25T13:03:25.029Z,19.50
2023-05-25T13:05:59.725Z,19.70
2023-05-25T13:08:26.811Z,19.60
2023-05-25T13:10:53.754Z,19.50
2023-05-25T13:13:21.024Z,19.40
2023-05-25T13:15:47.959Z,19.40
2023-05-25T13:18:14.890Z,19.40
2023-05-25T13:20:42.119Z,19.60
2023-05-25T13:23:09.326Z,19.70
2023-05-25T13:25:36.349Z,19.70
2023-05-25T13:28:03.239Z,19.90
2023-05-25T13:30:30.148Z,20.00
2023-05-25T13:32:57.077Z,20.00
2023-05-25T13:35:46.364Z,20.00
2023-05-25T13:38:15.219Z,20.20
2023-05-25T13:40:44.944Z,20.40
2023-05-25T13:43:11.948Z,20.40
2023-05-25T13:45:39.220Z,20.20
2023-05-25T13:48:06.292Z,20.00
2023-05-25T13:50:33.289Z,20.30
2023-05-25T13:53:00.498Z,20.10
2023-05-25T13:55:27.363Z,20.10
2023-05-25T13:57:54.300Z,19.90
2023-05-25T14:00:22.320Z,19.70
2023-05-25T14:02:49.314Z,19.60
2023-05-25T14:05:16.571Z,19.70
2023-05-25T14:07:44.522Z,19.90
2023-05-25T14:10:11.959Z,20.00
2023-05-25T14:12:39.246Z,20.00
2023-05-25T14:15:07.882Z,20.00
2023-05-25T14:17:35.185Z,20.00
2023-05-25T14:20:05.409Z,20.00
2023-05-25T14:22:32.627Z,20.00
2023-05-25T14:24:59.637Z,19.90
2023-05-25T14:27:26.512Z,19.90
2023-05-25T14:29:53.357Z,19.90
2023-05-25T14:32:20.474Z,19.90
2023-05-25T14:34:47.370Z,19.90
2023-05-25T14:37:14.273Z,19.90
2023-05-25T14:39:41.205Z,19.90
2023-05-25T14:42:08.453Z,20.00
2023-05-25T14:44:35.475Z,20.10
2023-05-25T14:47:02.764Z,21.20
2023-05-25T14:49:32.471Z,19.90
2023-05-25T14:51:59.325Z,19.90
2023-05-25T14:54:26.227Z,19.90
2023-05-25T14:56:53.081Z,20.10
2023-05-25T14:59:19.965Z,20.10
2023-05-25T15:01:46.962Z,20.20
2023-05-25T15:04:14.447Z,20.10
2023-05-25T15:06:41.433Z,20.50
2023-05-25T15:09:08.351Z,19.90
2023-05-25T15:11:35.220Z,19.60
2023-05-25T15:14:02.099Z,19.70
2023-05-25T15:16:29.002Z,19.80
2023-05-25T15:18:56.346Z,19.80
2023-05-25T15:21:23.184Z,19.70
2023-05-25T15:23:50.049Z,19.80
2023-05-25T15:26:17.085Z,19.70
2023-05-25T15:28:44.035Z,19.80
2023-05-25T15:31:10.945Z,19.80
2023-05-25T15:33:53.924Z,19.80
2023-05-25T15:36:24.932Z,19.80
2023-05-25T15:38:51.962Z,19.70
2023-05-25T15:41:19.164Z,19.50
2023-05-25T15:43:58.555Z,19.40
2023-05-25T15:46:25.977Z,19.40
2023-05-25T15:48:53.615Z,19.50
2023-05-25T15:51:21.354Z,19.50
2023-05-25T15:53:48.365Z,19.50
2023-05-25T15:56:15.215Z,19.40
2023-05-25T15:58:42.270Z,19.30
2023-05-25T16:01:10.751Z,19.30
2023-05-25T16:03:39.424Z,19.30
2023-05-25T16:06:06.681Z,19.50
2023-05-25T16:08:33.604Z,19.40
2023-05-25T16:11:00.499Z,19.40
2023-05-25T16:13:27.344Z,19.50
2023-05-25T16:15:54.272Z,19.50
2023-05-25T16:18:21.130Z,19.50
2023-05-25T16:20:48.885Z,19.50
2023-05-25T16:23:16.449Z,19.40
2023-05-25T16:25:43.481Z,19.40
2023-05-25T16:28:10.905Z,19.40
2023-05-25T16:30:37.741Z,19.40
2023-05-25T16:33:04.591Z,19.70
2023-05-25T16:35:31.567Z,19.50
2023-05-25T16:37:58.401Z,19.50
2023-05-25T16:40:26.424Z,19.50
2023-05-25T16:42:53.219Z,19.50
2023-05-25T16:45:22.860Z,19.40
2023-05-25T16:47:49.874Z,19.40
2023-05-25T16:50:17.148Z,19.40
2023-05-25T16:52:44.286Z,19.40
2023-05-25T16:55:11.184Z,19.40
2023-05-25T16:57:38.003Z,19.40
2023-05-25T17:00:06.235Z,19.50
2023-05-25T17:02:33.433Z,19.50
2023-05-25T17:05:00.347Z,19.50
2023-05-25T17:07:27.194Z,19.40
2023-05-25T17:09:54.093Z,19.60
2023-05-25T17:12:20.920Z,20.00
2023-05-25T17:14:47.729Z,19.40
2023-05-25T17:17:14.622Z,19.40
2023-05-25T17:19:41.644Z,19.40
2023-05-25T17:22:08.586Z,19.40
2023-05-25T17:24:35.536Z,19.40
2023-05-25T17:27:02.317Z,19.30
2023-05-25T17:29:29.214Z,19.30
2023-05-25T17:31:56.144Z,19.20
2023-05-25T17:34:22.949Z,19.20
2023-05-25T17:36:51.357Z,19.10
2023-05-25T17:39:18.236Z,19.10
2023-05-25T17:41:45.638Z,19.00
2023-05-25T17:44:12.425Z,19.00
2023-05-25T17:46:39.349Z,18.90
2023-05-25T17:49:06.309Z,18.90
2023-05-25T17:51:33.146Z,18.90
2023-05-25T17:54:00.022Z,18.90
2023-05-25T17:56:27.308Z,18.80
2023-05-25T17:58:54.263Z,18.80
2023-05-25T18:01:21.193Z,18.90
2023-05-25T18:03:50.761Z,18.70
2023-05-25T18:06:17.738Z,18.70
2023-05-25T18:08:44.584Z,18.60
2023-05-25T18:11:11.433Z,18.60
2023-05-25T18:13:38.370Z,18.60
2023-05-25T18:16:05.423Z,18.90
2023-05-25T18:18:32.265Z,18.50
2023-05-25T18:20:59.967Z,18.50
2023-05-25T18:23:27.504Z,18.40
2023-05-25T18:25:54.359Z,18.80
2023-05-25T18:28:21.316Z,18.40
2023-05-25T18:30:48.995Z,18.30
2023-05-25T18:33:16.648Z,18.20
2023-05-25T18:35:43.730Z,18.20
2023-05-25T18:38:10.737Z,18.10
2023-05-25T18:40:37.607Z,18.10
2023-05-25T18:43:05.665Z,18.00
2023-05-25T18:45:32.511Z,18.00
2023-05-25T18:48:07.710Z,17.90
2023-05-25T18:50:35.966Z,17.80
2023-05-25T18:53:04.558Z,17.80
2023-05-25T18:55:31.463Z,17.80
2023-05-25T18:57:58.256Z,17.70
2023-05-25T19:00:25.168Z,17.70
2023-05-25T19:02:52.453Z,17.60
2023-05-25T19:05:20.322Z,17.50
2023-05-25T19:07:58.400Z,17.50
2023-05-25T19:10:26.488Z,17.40
2023-05-25T19:12:53.463Z,17.30
2023-05-25T19:15:20.410Z,17.30
2023-05-25T19:17:53.437Z,17.20
2023-05-25T19:20:20.500Z,17.10
2023-05-25T19:22:47.743Z,17.00
2023-05-25T19:25:15.107Z,16.90
2023-05-25T19:27:41.977Z,16.80
2023-05-25T19:30:09.237Z,16.80
2023-05-25T19:32:36.105Z,16.70
2023-05-25T19:35:03.126Z,16.60
2023-05-25T19:37:30.051Z,16.50
2023-05-25T19:39:58.170Z,16.50
2023-05-25T19:42:25.157Z,16.40
2023-05-25T19:44:52.090Z,16.30
2023-05-25T19:47:19.277Z,16.30
2023-05-25T19:49:47.892Z,16.20
2023-05-25T19:52:17.885Z,16.20
2023-05-25T19:54:45.018Z,16.10
2023-05-25T19:57:11.984Z,16.10
2023-05-25T19:59:39.058Z,16.10
2023-05-25T20:02:06.453Z,16.00
2023-05-25T20:04:34.152Z,16.00
2023-05-25T20:07:01.063Z,16.00
2023-05-25T20:09:30.843Z,15.90
2023-05-25T20:11:58.705Z,15.90
2023-05-25T20:14:26.654Z,15.90
2023-05-25T20:16:55.747Z,15.80
2023-05-25T20:19:23.358Z,15.80
2023-05-25T20:21:50.628Z,15.80
2023-05-25T20:24:17.877Z,15.70
2023-05-25T20:26:44.963Z,15.70
2023-05-25T20:29:11.897Z,15.70
2023-05-25T20:31:39.044Z,15.70
2023-05-25T20:34:06.420Z,15.70
2023-05-25T20:36:33.310Z,15.70
2023-05-25T20:39:00.341Z,15.70
2023-05-25T20:41:27.390Z,15.70
2023-05-25T20:43:54.466Z,15.60
2023-05-25T20:46:21.372Z,15.60
2023-05-25T20:48:48.300Z,15.60
2023-05-25T20:51:15.218Z,15.60
2023-05-25T20:53:42.090Z,15.80
2023-05-25T20:56:09.101Z,15.70
2023-05-25T20:58:37.563Z,15.70
2023-05-25T21:01:04.566Z,15.60
2023-05-25T21:03:31.603Z,15.70
2023-05-25T21:05:58.665Z,15.70
2023-05-25T21:08:25.874Z,15.70
2023-05-25T21:10:52.765Z,15.70
2023-05-25T21:13:19.681Z,15.70
2023-05-25T21:15:49.791Z,15.70
2023-05-25T21:18:16.692Z,15.60
2023-05-25T21:20:44.108Z,15.70
2023-05-25T21:23:11.148Z,15.70
2023-05-25T21:25:37.951Z,15.70
2023-05-25T21:28:05.014Z,15.70
2023-05-25T21:30:31.792Z,15.70
2023-05-25T21:32:58.740Z,15.70
2023-05-25T21:35:25.800Z,15.60
2023-05-25T21:37:52.751Z,15.50
2023-05-25T21:40:19.825Z,15.40
2023-05-25T21:42:48.152Z,15.40
2023-05-25T21:45:16.078Z,15.30
2023-05-25T21:47:42.993Z,15.30
2023-05-25T21:50:09.947Z,15.70
2023-05-25T21:52:37.275Z,15.20
2023-05-25T21:55:04.628Z,15.20
2023-05-25T21:57:31.532Z,15.10
2023-05-25T21:59:58.385Z,15.10
2023-05-25T22:02:25.541Z,15.00
2023-05-25T22:04:52.487Z,15.00
2023-05-25T22:07:19.337Z,14.90
2023-05-25T22:09:46.197Z,14.90
2023-05-25T22:12:13.164Z,14.80
2023-05-25T22:14:40.059Z,14.80
2023-05-25T22:17:07.629Z,14.80
2023-05-25T22:19:34.711Z,14.70
2023-05-25T22:22:01.527Z,14.70
2023-05-25T22:24:28.472Z,14.70
2023-05-25T22:26:55.700Z,14.70
2023-05-25T22:29:22.620Z,14.70
2023-05-25T22:31:50.687Z,14.70
2023-05-25T22:34:17.665Z,14.70
2023-05-25T22:36:44.568Z,14.70
2023-05-25T22:39:11.497Z,14.70
2023-05-25T22:41:38.371Z,14.70
2023-05-25T22:44:05.490Z,14.60
2023-05-25T22:46:32.625Z,14.70
2023-05-25T22:48:59.549Z,14.60
2023-05-25T22:51:26.689Z,14.60
2023-05-25T22:53:53.493Z,14.50
2023-05-25T22:56:20.380Z,14.50
2023-05-25T22:58:47.347Z,14.50
2023-05-25T23:01:15.826Z,14.40
2023-05-25T23:03:42.892Z,14.40
2023-05-25T23:06:09.831Z,14.40
2023-05-25T23:08:36.903Z,14.40
2023-05-25T23:11:04.106Z,14.40
2023-05-25T23:13:32.382Z,14.40
2023-05-25T23:15:59.536Z,14.40
2023-05-25T23:18:26.777Z,14.30
2023-05-25T23:20:53.699Z,14.30
2023-05-25T23:23:20.752Z,14.30
2023-05-25T23:25:47.750Z,14.20
2023-05-25T23:28:14.615Z,14.20
2023-05-25T23:30:41.486Z,14.10
2023-05-25T23:33:08.579Z,14.10
2023-05-25T23:35:35.756Z,14.00
2023-05-25T23:38:02.698Z,14.00
2023-05-25T23:40:29.545Z,13.90
2023-05-25T23:42:56.521Z,13.80
2023-05-25T23:45:23.604Z,13.90
2023-05-25T23:47:50.819Z,13.70
2023-05-25T23:50:17.816Z,13.70
2023-05-25T23:52:46.098Z,13.60
2023-05-25T23:55:13.739Z,13.60
2023-05-25T23:57:41.149Z,13.50
